sensor_id;sensor_type;location;lat;lon;timestamp;temperature;humidity
26821;DHT22;37186;51.394;5.454;2024-03-25T00:02:08;8.50;80.10
26821;DHT22;37186;51.394;5.454;2024-03-25T00:05:09;8.50;80.20
26821;DHT22;37186;51.394;5.454;2024-03-25T00:08:10;8.50;80.10
26821;DHT22;37186;51.394;5.454;2024-03-25T00:11:10;8.50;80.10
26821;DHT22;37186;51.394;5.454;2024-03-25T00:14:11;8.40;80.10
26821;DHT22;37186;51.394;5.454;2024-03-25T00:17:11;8.40;80.00
26821;DHT22;37186;51.394;5.454;2024-03-25T00:20:14;8.40;80.20
26821;DHT22;37186;51.394;5.454;2024-03-25T00:23:15;8.40;80.10
26821;DHT22;37186;51.394;5.454;2024-03-25T00:26:16;8.30;80.00
26821;DHT22;37186;51.394;5.454;2024-03-25T00:29:16;8.30;80.00
26821;DHT22;37186;51.394;5.454;2024-03-25T00:32:17;8.30;80.00
26821;DHT22;37186;51.394;5.454;2024-03-25T00:35:18;8.30;80.10
26821;DHT22;37186;51.394;5.454;2024-03-25T00:38:18;8.30;79.80
26821;DHT22;37186;51.394;5.454;2024-03-25T00:41:19;8.20;80.00
26821;DHT22;37186;51.394;5.454;2024-03-25T00:44:20;8.20;80.10
26821;DHT22;37186;51.394;5.454;2024-03-25T00:47:20;8.20;79.90
26821;DHT22;37186;51.394;5.454;2024-03-25T00:50:22;8.10;80.10
26821;DHT22;37186;51.394;5.454;2024-03-25T00:53:22;8.10;79.80
26821;DHT22;37186;51.394;5.454;2024-03-25T00:56:23;8.10;80.10
26821;DHT22;37186;51.394;5.454;2024-03-25T00:59:23;8.10;80.00
26821;DHT22;37186;51.394;5.454;2024-03-25T01:02:24;8.00;79.80
26821;DHT22;37186;51.394;5.454;2024-03-25T01:05:27;8.00;80.10
26821;DHT22;37186;51.394;5.454;2024-03-25T01:08:28;8.00;80.00
26821;DHT22;37186;51.394;5.454;2024-03-25T01:11:28;8.00;80.40
26821;DHT22;37186;51.394;5.454;2024-03-25T01:14:29;7.90;80.10
26821;DHT22;37186;51.394;5.454;2024-03-25T01:17:29;7.90;80.00
26821;DHT22;37186;51.394;5.454;2024-03-25T01:20:30;7.90;79.90
26821;DHT22;37186;51.394;5.454;2024-03-25T01:23:30;7.90;80.30
26821;DHT22;37186;51.394;5.454;2024-03-25T01:26:31;7.90;80.00
26821;DHT22;37186;51.394;5.454;2024-03-25T01:29:32;7.80;80.00
26821;DHT22;37186;51.394;5.454;2024-03-25T01:32:33;7.80;80.40
26821;DHT22;37186;51.394;5.454;2024-03-25T01:35:34;7.80;80.00
26821;DHT22;37186;51.394;5.454;2024-03-25T01:38:34;7.80;79.90
26821;DHT22;37186;51.394;5.454;2024-03-25T01:41:35;7.70;80.10
26821;DHT22;37186;51.394;5.454;2024-03-25T01:44:35;7.70;80.00
26821;DHT22;37186;51.394;5.454;2024-03-25T01:47:38;7.70;80.00
26821;DHT22;37186;51.394;5.454;2024-03-25T01:50:43;7.70;80.10
26821;DHT22;37186;51.394;5.454;2024-03-25T01:53:45;7.70;80.00
26821;DHT22;37186;51.394;5.454;2024-03-25T01:56:47;7.70;80.20
26821;DHT22;37186;51.394;5.454;2024-03-25T01:59:48;7.70;80.10
26821;DHT22;37186;51.394;5.454;2024-03-25T02:02:49;7.60;79.90
26821;DHT22;37186;51.394;5.454;2024-03-25T02:05:57;7.60;80.00
26821;DHT22;37186;51.394;5.454;2024-03-25T02:08:59;7.60;80.20
26821;DHT22;37186;51.394;5.454;2024-03-25T02:12:01;7.60;80.10
26821;DHT22;37186;51.394;5.454;2024-03-25T02:15:04;7.60;80.10
26821;DHT22;37186;51.394;5.454;2024-03-25T02:18:05;7.60;80.00
26821;DHT22;37186;51.394;5.454;2024-03-25T02:21:06;7.60;80.10
26821;DHT22;37186;51.394;5.454;2024-03-25T02:24:09;7.60;80.20
26821;DHT22;37186;51.394;5.454;2024-03-25T02:27:10;7.60;80.30
26821;DHT22;37186;51.394;5.454;2024-03-25T02:30:14;7.50;80.10
26821;DHT22;37186;51.394;5.454;2024-03-25T02:33:15;7.50;80.10
26821;DHT22;37186;51.394;5.454;2024-03-25T02:36:15;7.50;80.10
26821;DHT22;37186;51.394;5.454;2024-03-25T02:39:16;7.50;80.10
26821;DHT22;37186;51.394;5.454;2024-03-25T02:42:17;7.50;80.10
26821;DHT22;37186;51.394;5.454;2024-03-25T02:45:18;7.50;80.20
26821;DHT22;37186;51.394;5.454;2024-03-25T02:48:18;7.50;80.20
26821;DHT22;37186;51.394;5.454;2024-03-25T02:51:19;7.50;80.10
26821;DHT22;37186;51.394;5.454;2024-03-25T02:54:19;7.40;80.10
26821;DHT22;37186;51.394;5.454;2024-03-25T02:57:20;7.40;80.10
26821;DHT22;37186;51.394;5.454;2024-03-25T03:00:21;7.40;80.10
26821;DHT22;37186;51.394;5.454;2024-03-25T03:03:21;7.40;80.10
26821;DHT22;37186;51.394;5.454;2024-03-25T03:06:22;7.40;80.00
26821;DHT22;37186;51.394;5.454;2024-03-25T03:09:23;7.30;80.10
26821;DHT22;37186;51.394;5.454;2024-03-25T03:12:24;7.30;80.10
26821;DHT22;37186;51.394;5.454;2024-03-25T03:15:24;7.30;80.00
26821;DHT22;37186;51.394;5.454;2024-03-25T03:18:25;7.30;80.00
26821;DHT22;37186;51.394;5.454;2024-03-25T03:21:25;7.30;80.10
26821;DHT22;37186;51.394;5.454;2024-03-25T03:24:26;7.20;80.00
26821;DHT22;37186;51.394;5.454;2024-03-25T03:27:26;7.20;80.00
26821;DHT22;37186;51.394;5.454;2024-03-25T03:30:27;7.20;80.10
26821;DHT22;37186;51.394;5.454;2024-03-25T03:33:28;7.20;80.10
26821;DHT22;37186;51.394;5.454;2024-03-25T03:36:28;7.20;80.10
26821;DHT22;37186;51.394;5.454;2024-03-25T03:39:29;7.10;80.10
26821;DHT22;37186;51.394;5.454;2024-03-25T03:42:29;7.10;80.10
26821;DHT22;37186;51.394;5.454;2024-03-25T03:45:33;7.10;80.00
26821;DHT22;37186;51.394;5.454;2024-03-25T03:48:35;7.10;80.00
26821;DHT22;37186;51.394;5.454;2024-03-25T03:51:37;7.10;80.00
26821;DHT22;37186;51.394;5.454;2024-03-25T03:54:38;7.00;79.90
26821;DHT22;37186;51.394;5.454;2024-03-25T03:57:39;7.00;79.90
26821;DHT22;37186;51.394;5.454;2024-03-25T04:00:39;7.00;80.00
26821;DHT22;37186;51.394;5.454;2024-03-25T04:03:40;7.00;80.10
26821;DHT22;37186;51.394;5.454;2024-03-25T04:06:40;6.90;79.90
26821;DHT22;37186;51.394;5.454;2024-03-25T04:09:41;6.90;79.90
26821;DHT22;37186;51.394;5.454;2024-03-25T04:12:41;6.90;80.00
26821;DHT22;37186;51.394;5.454;2024-03-25T04:15:43;6.80;79.90
26821;DHT22;37186;51.394;5.454;2024-03-25T04:18:43;6.80;79.90
26821;DHT22;37186;51.394;5.454;2024-03-25T04:21:44;6.80;79.90
26821;DHT22;37186;51.394;5.454;2024-03-25T04:24:44;6.80;79.90
26821;DHT22;37186;51.394;5.454;2024-03-25T04:27:45;6.70;79.90
26821;DHT22;37186;51.394;5.454;2024-03-25T04:30:55;6.70;79.80
26821;DHT22;37186;51.394;5.454;2024-03-25T04:33:55;6.70;79.90
26821;DHT22;37186;51.394;5.454;2024-03-25T04:36:56;6.60;79.80
26821;DHT22;37186;51.394;5.454;2024-03-25T04:39:57;6.70;79.90
26821;DHT22;37186;51.394;5.454;2024-03-25T04:42:57;6.60;79.90
26821;DHT22;37186;51.394;5.454;2024-03-25T04:46:02;6.60;79.90
26821;DHT22;37186;51.394;5.454;2024-03-25T04:49:02;6.60;79.90
26821;DHT22;37186;51.394;5.454;2024-03-25T04:52:03;6.60;80.00
26821;DHT22;37186;51.394;5.454;2024-03-25T04:55:04;6.60;80.00
26821;DHT22;37186;51.394;5.454;2024-03-25T04:58:05;6.50;79.80
26821;DHT22;37186;51.394;5.454;2024-03-25T05:01:05;6.50;79.80
26821;DHT22;37186;51.394;5.454;2024-03-25T05:04:06;6.50;79.70
26821;DHT22;37186;51.394;5.454;2024-03-25T05:07:09;6.50;79.90
26821;DHT22;37186;51.394;5.454;2024-03-25T05:10:10;6.40;79.80
26821;DHT22;37186;51.394;5.454;2024-03-25T05:13:11;6.40;79.80
26821;DHT22;37186;51.394;5.454;2024-03-25T05:16:11;6.40;80.00
26821;DHT22;37186;51.394;5.454;2024-03-25T05:19:12;6.40;80.00
26821;DHT22;37186;51.394;5.454;2024-03-25T05:22:12;6.40;79.80
26821;DHT22;37186;51.394;5.454;2024-03-25T05:25:13;6.40;79.90
26821;DHT22;37186;51.394;5.454;2024-03-25T05:28:14;6.30;79.80
26821;DHT22;37186;51.394;5.454;2024-03-25T05:31:14;6.30;79.80
26821;DHT22;37186;51.394;5.454;2024-03-25T05:34:16;6.30;79.90
26821;DHT22;37186;51.394;5.454;2024-03-25T05:37:16;6.30;80.00
26821;DHT22;37186;51.394;5.454;2024-03-25T05:40:17;6.30;79.80
26821;DHT22;37186;51.394;5.454;2024-03-25T05:43:17;6.30;79.80
26821;DHT22;37186;51.394;5.454;2024-03-25T05:46:18;6.30;80.00
26821;DHT22;37186;51.394;5.454;2024-03-25T05:49:18;6.20;79.70
26821;DHT22;37186;51.394;5.454;2024-03-25T05:52:19;6.20;79.80
26821;DHT22;37186;51.394;5.454;2024-03-25T05:55:19;6.20;79.60
26821;DHT22;37186;51.394;5.454;2024-03-25T05:58:20;6.20;79.70
26821;DHT22;37186;51.394;5.454;2024-03-25T06:01:21;6.20;79.70
26821;DHT22;37186;51.394;5.454;2024-03-25T06:04:21;6.20;80.00
26821;DHT22;37186;51.394;5.454;2024-03-25T06:07:22;6.20;79.80
26821;DHT22;37186;51.394;5.454;2024-03-25T06:10:23;6.20;80.00
26821;DHT22;37186;51.394;5.454;2024-03-25T06:13:23;6.20;80.00
26821;DHT22;37186;51.394;5.454;2024-03-25T06:16:24;6.20;80.00
26821;DHT22;37186;51.394;5.454;2024-03-25T06:19:24;6.20;80.00
26821;DHT22;37186;51.394;5.454;2024-03-25T06:22:25;6.20;80.00
26821;DHT22;37186;51.394;5.454;2024-03-25T06:25:26;6.20;80.10
26821;DHT22;37186;51.394;5.454;2024-03-25T06:28:27;6.20;79.90
26821;DHT22;37186;51.394;5.454;2024-03-25T06:31:27;6.20;79.90
26821;DHT22;37186;51.394;5.454;2024-03-25T06:34:46;6.20;79.90
26821;DHT22;37186;51.394;5.454;2024-03-25T06:37:47;6.20;79.90
26821;DHT22;37186;51.394;5.454;2024-03-25T06:40:47;6.20;80.70
26821;DHT22;37186;51.394;5.454;2024-03-25T06:43:48;6.20;79.90
26821;DHT22;37186;51.394;5.454;2024-03-25T06:46:48;6.20;79.90
26821;DHT22;37186;51.394;5.454;2024-03-25T06:49:49;6.20;80.00
26821;DHT22;37186;51.394;5.454;2024-03-25T06:52:49;6.30;80.10
26821;DHT22;37186;51.394;5.454;2024-03-25T06:55:58;6.30;80.00
26821;DHT22;37186;51.394;5.454;2024-03-25T06:58:59;6.30;80.00
26821;DHT22;37186;51.394;5.454;2024-03-25T07:01:59;6.30;80.20
26821;DHT22;37186;51.394;5.454;2024-03-25T07:05:00;6.40;80.20
26821;DHT22;37186;51.394;5.454;2024-03-25T07:08:00;6.40;80.30
26821;DHT22;37186;51.394;5.454;2024-03-25T07:11:01;6.50;80.30
26821;DHT22;37186;51.394;5.454;2024-03-25T07:14:01;6.50;80.40
26821;DHT22;37186;51.394;5.454;2024-03-25T07:17:02;6.50;80.40
26821;DHT22;37186;51.394;5.454;2024-03-25T07:20:03;6.60;80.50
26821;DHT22;37186;51.394;5.454;2024-03-25T07:23:04;6.60;80.70
26821;DHT22;37186;51.394;5.454;2024-03-25T07:26:04;6.70;80.60
26821;DHT22;37186;51.394;5.454;2024-03-25T07:29:05;6.70;80.70
26821;DHT22;37186;51.394;5.454;2024-03-25T07:32:06;6.80;80.90
26821;DHT22;37186;51.394;5.454;2024-03-25T07:35:06;6.80;80.80
26821;DHT22;37186;51.394;5.454;2024-03-25T07:38:09;6.90;81.10
26821;DHT22;37186;51.394;5.454;2024-03-25T07:41:09;6.90;80.80
26821;DHT22;37186;51.394;5.454;2024-03-25T07:44:10;7.00;80.90
26821;DHT22;37186;51.394;5.454;2024-03-25T07:47:10;7.00;81.00
26821;DHT22;37186;51.394;5.454;2024-03-25T07:50:11;7.10;81.10
26821;DHT22;37186;51.394;5.454;2024-03-25T07:53:11;7.20;81.10
26821;DHT22;37186;51.394;5.454;2024-03-25T07:56:12;7.20;81.10
26821;DHT22;37186;51.394;5.454;2024-03-25T07:59:15;7.30;81.30
26821;DHT22;37186;51.394;5.454;2024-03-25T08:02:16;7.30;81.20
26821;DHT22;37186;51.394;5.454;2024-03-25T08:05:16;7.30;81.10
26821;DHT22;37186;51.394;5.454;2024-03-25T08:08:17;7.40;81.20
26821;DHT22;37186;51.394;5.454;2024-03-25T08:11:17;7.50;81.40
26821;DHT22;37186;51.394;5.454;2024-03-25T08:14:18;7.50;81.30
26821;DHT22;37186;51.394;5.454;2024-03-25T08:17:18;7.60;81.30
26821;DHT22;37186;51.394;5.454;2024-03-25T08:20:19;7.60;81.50
26821;DHT22;37186;51.394;5.454;2024-03-25T08:23:19;7.70;81.40
26821;DHT22;37186;51.394;5.454;2024-03-25T08:26:20;7.70;81.30
26821;DHT22;37186;51.394;5.454;2024-03-25T08:29:20;7.70;81.30
26821;DHT22;37186;51.394;5.454;2024-03-25T08:32:21;7.70;81.30
26821;DHT22;37186;51.394;5.454;2024-03-25T08:35:22;7.80;81.50
26821;DHT22;37186;51.394;5.454;2024-03-25T08:38:22;7.80;81.40
26821;DHT22;37186;51.394;5.454;2024-03-25T08:41:23;7.90;81.50
26821;DHT22;37186;51.394;5.454;2024-03-25T08:44:23;7.90;81.30
26821;DHT22;37186;51.394;5.454;2024-03-25T08:47:24;8.00;81.30
26821;DHT22;37186;51.394;5.454;2024-03-25T08:50:24;8.00;81.40
26821;DHT22;37186;51.394;5.454;2024-03-25T08:53:25;8.00;81.30
26821;DHT22;37186;51.394;5.454;2024-03-25T08:56:25;8.10;82.10
26821;DHT22;37186;51.394;5.454;2024-03-25T08:59:26;8.10;82.00
26821;DHT22;37186;51.394;5.454;2024-03-25T09:02:26;8.20;81.60
26821;DHT22;37186;51.394;5.454;2024-03-25T09:05:27;8.20;81.70
26821;DHT22;37186;51.394;5.454;2024-03-25T09:08:27;8.30;81.70
26821;DHT22;37186;51.394;5.454;2024-03-25T09:11:28;8.30;81.60
26821;DHT22;37186;51.394;5.454;2024-03-25T09:14:28;8.40;81.80
26821;DHT22;37186;51.394;5.454;2024-03-25T09:17:29;8.40;81.60
26821;DHT22;37186;51.394;5.454;2024-03-25T09:20:29;8.50;81.70
26821;DHT22;37186;51.394;5.454;2024-03-25T09:23:30;8.50;81.80
26821;DHT22;37186;51.394;5.454;2024-03-25T09:26:30;8.50;81.70
26821;DHT22;37186;51.394;5.454;2024-03-25T09:29:31;8.60;81.80
26821;DHT22;37186;51.394;5.454;2024-03-25T09:32:31;8.60;81.80
26821;DHT22;37186;51.394;5.454;2024-03-25T09:35:32;8.70;82.00
26821;DHT22;37186;51.394;5.454;2024-03-25T09:38:32;8.70;82.10
26821;DHT22;37186;51.394;5.454;2024-03-25T09:41:35;8.70;81.80
26821;DHT22;37186;51.394;5.454;2024-03-25T09:44:36;8.80;81.80
26821;DHT22;37186;51.394;5.454;2024-03-25T09:47:39;8.80;82.00
26821;DHT22;37186;51.394;5.454;2024-03-25T09:50:40;8.90;82.00
26821;DHT22;37186;51.394;5.454;2024-03-25T09:53:41;8.90;81.90
26821;DHT22;37186;51.394;5.454;2024-03-25T09:56:42;9.00;82.00
26821;DHT22;37186;51.394;5.454;2024-03-25T09:59:43;9.00;82.80
26821;DHT22;37186;51.394;5.454;2024-03-25T10:02:44;9.00;82.00
26821;DHT22;37186;51.394;5.454;2024-03-25T10:05:44;9.10;82.00
26821;DHT22;37186;51.394;5.454;2024-03-25T10:08:45;9.10;82.10
26821;DHT22;37186;51.394;5.454;2024-03-25T10:11:49;9.20;82.10
26821;DHT22;37186;51.394;5.454;2024-03-25T10:14:50;9.20;82.20
26821;DHT22;37186;51.394;5.454;2024-03-25T10:17:50;9.30;82.20
26821;DHT22;37186;51.394;5.454;2024-03-25T10:20:53;9.30;82.30
26821;DHT22;37186;51.394;5.454;2024-03-25T10:23:54;9.40;82.30
26821;DHT22;37186;51.394;5.454;2024-03-25T10:26:56;9.40;82.30
26821;DHT22;37186;51.394;5.454;2024-03-25T10:29:57;9.50;82.40
26821;DHT22;37186;51.394;5.454;2024-03-25T10:33:17;9.60;82.40
26821;DHT22;37186;51.394;5.454;2024-03-25T10:36:19;9.60;82.40
26821;DHT22;37186;51.394;5.454;2024-03-25T10:39:20;9.70;82.40
26821;DHT22;37186;51.394;5.454;2024-03-25T10:42:25;9.80;82.60
26821;DHT22;37186;51.394;5.454;2024-03-25T10:45:27;9.80;82.40
26821;DHT22;37186;51.394;5.454;2024-03-25T10:48:31;9.90;82.40
26821;DHT22;37186;51.394;5.454;2024-03-25T10:51:35;9.90;82.30
26821;DHT22;37186;51.394;5.454;2024-03-25T10:54:36;10.00;82.40
26821;DHT22;37186;51.394;5.454;2024-03-25T10:57:38;10.00;82.30
26821;DHT22;37186;51.394;5.454;2024-03-25T11:00:39;10.10;82.30
26821;DHT22;37186;51.394;5.454;2024-03-25T11:03:42;10.10;82.10
26821;DHT22;37186;51.394;5.454;2024-03-25T11:06:43;10.20;82.20
26821;DHT22;37186;51.394;5.454;2024-03-25T11:09:43;10.20;82.10
26821;DHT22;37186;51.394;5.454;2024-03-25T11:12:44;10.20;81.90
26821;DHT22;37186;51.394;5.454;2024-03-25T11:15:48;10.20;82.00
26821;DHT22;37186;51.394;5.454;2024-03-25T11:18:52;10.30;82.10
26821;DHT22;37186;51.394;5.454;2024-03-25T11:21:54;10.30;81.80
26821;DHT22;37186;51.394;5.454;2024-03-25T11:24:55;10.40;82.00
26821;DHT22;37186;51.394;5.454;2024-03-25T11:27:55;10.40;81.70
26821;DHT22;37186;51.394;5.454;2024-03-25T11:30:56;10.50;81.70
26821;DHT22;37186;51.394;5.454;2024-03-25T11:33:56;10.60;82.00
26821;DHT22;37186;51.394;5.454;2024-03-25T11:36:58;10.60;82.00
26821;DHT22;37186;51.394;5.454;2024-03-25T11:40:04;10.70;81.80
26821;DHT22;37186;51.394;5.454;2024-03-25T11:43:07;10.70;82.00
26821;DHT22;37186;51.394;5.454;2024-03-25T11:46:07;10.80;82.00
26821;DHT22;37186;51.394;5.454;2024-03-25T11:49:12;10.80;81.60
26821;DHT22;37186;51.394;5.454;2024-03-25T11:52:13;10.90;82.00
26821;DHT22;37186;51.394;5.454;2024-03-25T11:55:17;10.90;82.00
26821;DHT22;37186;51.394;5.454;2024-03-25T11:58:18;11.00;81.60
26821;DHT22;37186;51.394;5.454;2024-03-25T12:01:19;11.10;82.00
26821;DHT22;37186;51.394;5.454;2024-03-25T12:04:19;11.10;82.00
26821;DHT22;37186;51.394;5.454;2024-03-25T12:07:22;11.20;82.10
26821;DHT22;37186;51.394;5.454;2024-03-25T12:10:22;11.30;82.20
26821;DHT22;37186;51.394;5.454;2024-03-25T12:13:42;11.40;82.10
26821;DHT22;37186;51.394;5.454;2024-03-25T12:16:43;11.50;82.10
26821;DHT22;37186;51.394;5.454;2024-03-25T12:19:44;11.50;82.10
26821;DHT22;37186;51.394;5.454;2024-03-25T12:22:45;11.60;82.10
26821;DHT22;37186;51.394;5.454;2024-03-25T12:25:49;11.60;82.00
26821;DHT22;37186;51.394;5.454;2024-03-25T12:28:50;11.70;82.00
26821;DHT22;37186;51.394;5.454;2024-03-25T12:31:57;11.80;81.90
26821;DHT22;37186;51.394;5.454;2024-03-25T12:34:58;11.90;81.10
26821;DHT22;37186;51.394;5.454;2024-03-25T12:37:59;11.90;81.00
26821;DHT22;37186;51.394;5.454;2024-03-25T12:41:12;12.00;81.50
26821;DHT22;37186;51.394;5.454;2024-03-25T12:44:13;12.10;81.60
26821;DHT22;37186;51.394;5.454;2024-03-25T12:47:14;12.10;81.40
26821;DHT22;37186;51.394;5.454;2024-03-25T12:50:15;12.20;80.60
26821;DHT22;37186;51.394;5.454;2024-03-25T12:53:17;12.20;81.10
26821;DHT22;37186;51.394;5.454;2024-03-25T12:56:18;12.30;81.30
26821;DHT22;37186;51.394;5.454;2024-03-25T12:59:19;12.30;81.10
26821;DHT22;37186;51.394;5.454;2024-03-25T13:02:19;12.40;81.40
26821;DHT22;37186;51.394;5.454;2024-03-25T13:05:20;12.40;81.20
26821;DHT22;37186;51.394;5.454;2024-03-25T13:08:21;12.50;81.30
26821;DHT22;37186;51.394;5.454;2024-03-25T13:11:22;12.50;81.30
26821;DHT22;37186;51.394;5.454;2024-03-25T13:14:23;12.50;81.10
26821;DHT22;37186;51.394;5.454;2024-03-25T13:17:24;12.60;81.10
26821;DHT22;37186;51.394;5.454;2024-03-25T13:20:24;12.70;81.10
26821;DHT22;37186;51.394;5.454;2024-03-25T13:23:25;12.70;80.90
26821;DHT22;37186;51.394;5.454;2024-03-25T13:26:25;12.70;81.00
26821;DHT22;37186;51.394;5.454;2024-03-25T13:29:26;12.80;80.50
26821;DHT22;37186;51.394;5.454;2024-03-25T13:32:26;12.80;78.80
26821;DHT22;37186;51.394;5.454;2024-03-25T13:35:27;12.80;80.40
26821;DHT22;37186;51.394;5.454;2024-03-25T13:38:27;12.90;80.50
26821;DHT22;37186;51.394;5.454;2024-03-25T13:41:28;12.90;80.70
26821;DHT22;37186;51.394;5.454;2024-03-25T13:44:29;12.90;80.70
26821;DHT22;37186;51.394;5.454;2024-03-25T13:47:29;13.00;80.70
26821;DHT22;37186;51.394;5.454;2024-03-25T13:50:30;13.00;80.60
26821;DHT22;37186;51.394;5.454;2024-03-25T13:53:30;13.00;80.40
26821;DHT22;37186;51.394;5.454;2024-03-25T13:56:31;13.10;81.50
26821;DHT22;37186;51.394;5.454;2024-03-25T13:59:31;13.10;77.60
26821;DHT22;37186;51.394;5.454;2024-03-25T14:02:32;13.10;80.10
26821;DHT22;37186;51.394;5.454;2024-03-25T14:05:33;13.10;79.80
26821;DHT22;37186;51.394;5.454;2024-03-25T14:08:34;13.20;79.10
26821;DHT22;37186;51.394;5.454;2024-03-25T14:11:35;13.20;79.30
26821;DHT22;37186;51.394;5.454;2024-03-25T14:14:36;13.20;79.60
26821;DHT22;37186;51.394;5.454;2024-03-25T14:17:36;13.30;79.90
26821;DHT22;37186;51.394;5.454;2024-03-25T14:20:37;13.30;79.60
26821;DHT22;37186;51.394;5.454;2024-03-25T14:23:37;13.30;79.50
26821;DHT22;37186;51.394;5.454;2024-03-25T14:26:38;13.40;79.90
26821;DHT22;37186;51.394;5.454;2024-03-25T14:29:40;13.40;80.00
26821;DHT22;37186;51.394;5.454;2024-03-25T14:32:41;13.50;80.20
26821;DHT22;37186;51.394;5.454;2024-03-25T14:35:42;13.50;80.40
26821;DHT22;37186;51.394;5.454;2024-03-25T14:38:42;13.60;80.20
26821;DHT22;37186;51.394;5.454;2024-03-25T14:41:43;13.60;80.40
26821;DHT22;37186;51.394;5.454;2024-03-25T14:44:43;13.70;80.50
26821;DHT22;37186;51.394;5.454;2024-03-25T14:47:44;13.70;80.30
26821;DHT22;37186;51.394;5.454;2024-03-25T14:50:44;13.80;80.20
26821;DHT22;37186;51.394;5.454;2024-03-25T14:53:45;13.80;79.60
26821;DHT22;37186;51.394;5.454;2024-03-25T14:56:46;13.90;80.20
26821;DHT22;37186;51.394;5.454;2024-03-25T14:59:47;13.90;79.90
26821;DHT22;37186;51.394;5.454;2024-03-25T15:02:48;13.90;80.00
26821;DHT22;37186;51.394;5.454;2024-03-25T15:05:48;14.00;79.80
26821;DHT22;37186;51.394;5.454;2024-03-25T15:08:49;14.00;80.10
26821;DHT22;37186;51.394;5.454;2024-03-25T15:11:49;14.00;80.30
26821;DHT22;37186;51.394;5.454;2024-03-25T15:14:50;14.10;80.60
26821;DHT22;37186;51.394;5.454;2024-03-25T15:17:50;14.20;81.00
26821;DHT22;37186;51.394;5.454;2024-03-25T15:21:04;14.30;80.20
26821;DHT22;37186;51.394;5.454;2024-03-25T15:24:05;14.40;81.50
26821;DHT22;37186;51.394;5.454;2024-03-25T15:27:06;14.50;81.10
26821;DHT22;37186;51.394;5.454;2024-03-25T15:30:07;14.60;80.70
26821;DHT22;37186;51.394;5.454;2024-03-25T15:33:07;14.70;80.90
26821;DHT22;37186;51.394;5.454;2024-03-25T15:36:08;14.80;81.10
26821;DHT22;37186;51.394;5.454;2024-03-25T15:39:08;14.90;81.40
26821;DHT22;37186;51.394;5.454;2024-03-25T15:42:09;15.00;80.60
26821;DHT22;37186;51.394;5.454;2024-03-25T15:45:10;15.10;81.10
26821;DHT22;37186;51.394;5.454;2024-03-25T15:48:11;15.20;82.40
26821;DHT22;37186;51.394;5.454;2024-03-25T15:51:12;15.30;81.70
26821;DHT22;37186;51.394;5.454;2024-03-25T15:54:12;15.40;81.70
26821;DHT22;37186;51.394;5.454;2024-03-25T15:57:13;15.50;81.80
26821;DHT22;37186;51.394;5.454;2024-03-25T16:00:13;15.70;81.70
26821;DHT22;37186;51.394;5.454;2024-03-25T16:03:14;15.80;81.60
26821;DHT22;37186;51.394;5.454;2024-03-25T16:06:15;15.90;81.60
26821;DHT22;37186;51.394;5.454;2024-03-25T16:09:16;15.90;81.00
26821;DHT22;37186;51.394;5.454;2024-03-25T16:12:17;16.10;80.80
26821;DHT22;37186;51.394;5.454;2024-03-25T16:15:17;16.10;80.50
26821;DHT22;37186;51.394;5.454;2024-03-25T16:18:18;16.20;80.30
26821;DHT22;37186;51.394;5.454;2024-03-25T16:21:18;16.20;80.50
26821;DHT22;37186;51.394;5.454;2024-03-25T16:24:20;16.20;80.50
26821;DHT22;37186;51.394;5.454;2024-03-25T16:27:20;16.30;80.50
26821;DHT22;37186;51.394;5.454;2024-03-25T16:30:21;16.30;80.10
26821;DHT22;37186;51.394;5.454;2024-03-25T16:33:22;16.20;79.30
26821;DHT22;37186;51.394;5.454;2024-03-25T16:36:23;16.20;79.50
26821;DHT22;37186;51.394;5.454;2024-03-25T16:39:24;16.20;79.00
26821;DHT22;37186;51.394;5.454;2024-03-25T16:42:24;16.20;79.00
26821;DHT22;37186;51.394;5.454;2024-03-25T16:45:25;16.10;78.80
26821;DHT22;37186;51.394;5.454;2024-03-25T16:48:25;16.10;78.30
26821;DHT22;37186;51.394;5.454;2024-03-25T16:51:26;16.10;78.00
26821;DHT22;37186;51.394;5.454;2024-03-25T16:54:26;16.00;78.40
26821;DHT22;37186;51.394;5.454;2024-03-25T16:57:27;15.90;76.40
26821;DHT22;37186;51.394;5.454;2024-03-25T17:00:27;15.80;77.80
26821;DHT22;37186;51.394;5.454;2024-03-25T17:03:28;15.70;77.50
26821;DHT22;37186;51.394;5.454;2024-03-25T17:06:28;15.70;77.90
26821;DHT22;37186;51.394;5.454;2024-03-25T17:09:29;15.60;77.60
26821;DHT22;37186;51.394;5.454;2024-03-25T17:12:31;15.50;77.60
26821;DHT22;37186;51.394;5.454;2024-03-25T17:15:32;15.50;77.40
26821;DHT22;37186;51.394;5.454;2024-03-25T17:18:33;15.40;77.30
26821;DHT22;37186;51.394;5.454;2024-03-25T17:21:33;15.40;77.20
26821;DHT22;37186;51.394;5.454;2024-03-25T17:24:34;15.30;77.20
26821;DHT22;37186;51.394;5.454;2024-03-25T17:27:35;15.20;77.10
26821;DHT22;37186;51.394;5.454;2024-03-25T17:30:36;15.10;76.20
26821;DHT22;37186;51.394;5.454;2024-03-25T17:33:37;15.00;76.50
26821;DHT22;37186;51.394;5.454;2024-03-25T17:36:37;15.00;76.70
26821;DHT22;37186;51.394;5.454;2024-03-25T17:39:38;14.90;76.70
26821;DHT22;37186;51.394;5.454;2024-03-25T17:42:39;14.80;76.70
26821;DHT22;37186;51.394;5.454;2024-03-25T17:45:40;14.70;76.90
26821;DHT22;37186;51.394;5.454;2024-03-25T17:48:41;14.70;76.80
26821;DHT22;37186;51.394;5.454;2024-03-25T17:51:41;14.60;76.70
26821;DHT22;37186;51.394;5.454;2024-03-25T17:54:42;14.50;76.50
26821;DHT22;37186;51.394;5.454;2024-03-25T17:57:42;14.50;76.10
26821;DHT22;37186;51.394;5.454;2024-03-25T18:00:43;14.40;76.50
26821;DHT22;37186;51.394;5.454;2024-03-25T18:03:43;14.30;76.20
26821;DHT22;37186;51.394;5.454;2024-03-25T18:06:44;14.20;76.20
26821;DHT22;37186;51.394;5.454;2024-03-25T18:09:45;14.10;76.20
26821;DHT22;37186;51.394;5.454;2024-03-25T18:12:45;14.10;76.20
26821;DHT22;37186;51.394;5.454;2024-03-25T18:15:50;14.00;76.20
26821;DHT22;37186;51.394;5.454;2024-03-25T18:18:51;13.90;76.10
26821;DHT22;37186;51.394;5.454;2024-03-25T18:21:52;13.80;76.20
26821;DHT22;37186;51.394;5.454;2024-03-25T18:24:52;13.80;76.20
26821;DHT22;37186;51.394;5.454;2024-03-25T18:27:53;13.70;76.20
26821;DHT22;37186;51.394;5.454;2024-03-25T18:30:58;13.60;76.20
26821;DHT22;37186;51.394;5.454;2024-03-25T18:33:59;13.60;76.40
26821;DHT22;37186;51.394;5.454;2024-03-25T18:37:00;13.50;76.40
26821;DHT22;37186;51.394;5.454;2024-03-25T18:40:00;13.40;76.00
26821;DHT22;37186;51.394;5.454;2024-03-25T18:43:01;13.40;76.20
26821;DHT22;37186;51.394;5.454;2024-03-25T18:46:01;13.30;76.20
26821;DHT22;37186;51.394;5.454;2024-03-25T18:49:02;13.20;76.30
26821;DHT22;37186;51.394;5.454;2024-03-25T18:52:03;13.20;76.40
26821;DHT22;37186;51.394;5.454;2024-03-25T18:55:05;13.10;76.40
26821;DHT22;37186;51.394;5.454;2024-03-25T18:58:06;13.10;76.40
26821;DHT22;37186;51.394;5.454;2024-03-25T19:01:09;13.00;76.30
26821;DHT22;37186;51.394;5.454;2024-03-25T19:04:11;13.00;76.50
26821;DHT22;37186;51.394;5.454;2024-03-25T19:07:11;12.90;76.60
26821;DHT22;37186;51.394;5.454;2024-03-25T19:10:12;12.90;76.60
26821;DHT22;37186;51.394;5.454;2024-03-25T19:13:13;12.90;76.60
26821;DHT22;37186;51.394;5.454;2024-03-25T19:16:13;12.80;76.50